createdAt,value
2022-10-14T00:00:10.376Z,84.7
2022-10-14T00:01:10.388Z,84.7
2022-10-14T00:02:10.614Z,84.7
2022-10-14T00:03:10.408Z,84.7
2022-10-14T00:04:10.421Z,84.8
2022-10-14T00:05:10.442Z,84.8
2022-10-14T00:06:10.442Z,84.9
2022-10-14T00:07:10.453Z,84.8
2022-10-14T00:08:10.475Z,84.8
2022-10-14T00:09:10.468Z,84.7
2022-10-14T00:10:10.489Z,84.7
2022-10-14T00:11:10.495Z,84.7
2022-10-14T00:12:10.508Z,84.7
2022-10-14T00:13:10.526Z,84.7
2022-10-14T00:14:10.521Z,84.7
2022-10-14T00:15:10.529Z,84.7
2022-10-14T00:16:10.550Z,84.7
2022-10-14T00:17:10.553Z,84.7
2022-10-14T00:18:10.567Z,84.8
2022-10-14T00:19:10.595Z,84.8
2022-10-14T00:20:10.598Z,84.9
2022-10-14T00:21:10.601Z,84.8
2022-10-14T00:22:10.611Z,84.8
2022-10-14T00:23:10.630Z,84.7
2022-10-14T00:24:10.645Z,84.7
2022-10-14T00:25:10.641Z,84.7
2022-10-14T00:26:10.662Z,84.7
2022-10-14T00:27:10.677Z,84.7
2022-10-14T00:28:10.686Z,84.7
2022-10-14T00:29:10.687Z,84.6
2022-10-14T00:30:10.696Z,84.7
2022-10-14T00:31:10.702Z,84.7
2022-10-14T00:32:10.711Z,84.7
2022-10-14T00:33:10.716Z,84.7
2022-10-14T00:34:10.726Z,84.7
2022-10-14T00:35:10.743Z,84.7
2022-10-14T00:36:10.764Z,84.7
2022-10-14T00:37:10.777Z,84.7
2022-10-14T00:38:10.783Z,84.6
2022-10-14T00:39:10.799Z,84.6
2022-10-14T00:40:10.812Z,84.7
2022-10-14T00:41:10.827Z,84.6
2022-10-14T00:42:10.844Z,84.7
2022-10-14T00:43:10.844Z,84.6
2022-10-14T00:44:10.848Z,84.6
2022-10-14T00:45:10.851Z,84.6
2022-10-14T00:46:10.862Z,84.7
2022-10-14T01:04:11.447Z,84.7
2022-10-14T01:05:11.081Z,84.6
2022-10-14T01:06:11.097Z,84.6
2022-10-14T01:07:11.095Z,84.7
2022-10-14T01:08:11.112Z,84.7
2022-10-14T01:09:11.125Z,84.7
2022-10-14T01:10:11.121Z,84.8
2022-10-14T01:11:11.137Z,84.6
2022-10-14T01:12:30.103Z,84.6
2022-10-14T01:13:11.168Z,84.6
2022-10-14T01:14:11.162Z,84.6
2022-10-14T01:15:11.169Z,84.7
2022-10-14T01:16:11.187Z,84.6
2022-10-14T01:17:11.213Z,84.6
2022-10-14T01:18:11.197Z,84.6
2022-10-14T01:19:11.223Z,84.6
2022-10-14T01:20:11.233Z,84.5
2022-10-14T01:21:11.244Z,84.6
2022-10-14T01:22:11.248Z,84.6
2022-10-14T01:23:11.261Z,84.5
2022-10-14T01:24:11.292Z,84.5
2022-10-14T01:25:11.286Z,84.5
2022-10-14T01:26:11.315Z,84.6
2022-10-14T01:27:11.327Z,84.6
2022-10-14T01:28:11.320Z,84.6
2022-10-14T01:29:11.336Z,84.6
2022-10-14T01:30:11.352Z,84.6
2022-10-14T01:31:11.354Z,84.6
2022-10-14T01:32:11.367Z,84.6
2022-10-14T01:33:11.381Z,84.6
2022-10-14T01:34:11.383Z,84.5
2022-10-14T01:35:11.401Z,84.6
2022-10-14T01:36:11.417Z,84.7
2022-10-14T01:37:11.431Z,84.6
2022-10-14T01:38:11.452Z,84.5
2022-10-14T01:39:11.461Z,84.6
2022-10-14T01:40:11.467Z,84.5
2022-10-14T01:41:11.481Z,84.6
2022-10-14T01:42:11.502Z,84.5
2022-10-14T01:43:11.529Z,84.5
2022-10-14T01:44:11.522Z,84.5
2022-10-14T01:45:11.548Z,84.5
2022-10-14T01:46:11.628Z,84.5
2022-10-14T01:47:11.580Z,84.5
2022-10-14T01:48:11.591Z,84.6
2022-10-14T01:49:11.602Z,84.5
2022-10-14T01:50:11.621Z,84.5
2022-10-14T01:51:11.633Z,84.6
2022-10-14T01:52:11.654Z,84.6
2022-10-14T01:53:11.667Z,84.6
2022-10-14T01:54:11.678Z,84.5
2022-10-14T01:55:11.699Z,84.6
2022-10-14T01:56:11.695Z,84.6
2022-10-14T01:57:11.712Z,84.6
2022-10-14T01:58:11.712Z,84.6
2022-10-14T01:59:11.714Z,84.6
2022-10-14T02:00:11.745Z,84.7
2022-10-14T02:01:11.751Z,84.6
2022-10-14T02:02:11.957Z,84.6
2022-10-14T02:03:11.776Z,84.8
2022-10-14T02:04:11.781Z,84.7
2022-10-14T02:05:11.794Z,84.8
2022-10-14T02:06:11.806Z,84.7
2022-10-14T02:07:11.817Z,84.7
2022-10-14T02:08:11.834Z,84.7
2022-10-14T02:09:11.839Z,84.7
2022-10-14T02:10:11.848Z,84.7
2022-10-14T02:11:11.854Z,84.7
2022-10-14T02:12:11.873Z,84.7
2022-10-14T02:13:11.878Z,84.7
2022-10-14T02:14:11.899Z,84.7
2022-10-14T02:15:11.906Z,84.6
2022-10-14T02:16:11.919Z,84.6
2022-10-14T02:17:11.918Z,84.6
2022-10-14T02:18:11.938Z,84.6
2022-10-14T02:19:11.956Z,84.6
2022-10-14T02:20:11.949Z,84.6
2022-10-14T02:21:11.962Z,84.6
2022-10-14T02:22:11.980Z,84.6
2022-10-14T02:23:12.001Z,84.6
2022-10-14T02:24:12.005Z,84.6
2022-10-14T02:25:12.015Z,84.6
2022-10-14T02:26:12.035Z,84.7
2022-10-14T02:27:12.039Z,84.6
2022-10-14T02:28:12.045Z,84.7
2022-10-14T02:29:12.058Z,84.6
2022-10-14T02:30:12.066Z,84.6
2022-10-14T02:31:12.085Z,84.7
2022-10-14T02:32:12.091Z,84.7
2022-10-14T02:33:12.104Z,84.7
2022-10-14T02:34:12.123Z,84.9
2022-10-14T02:35:12.135Z,84.8
2022-10-14T02:36:12.154Z,84.8
2022-10-14T02:37:12.160Z,84.8
2022-10-14T02:38:13.931Z,84.8
2022-10-14T02:39:12.199Z,84.8
2022-10-14T02:40:12.226Z,84.9
2022-10-14T02:41:12.209Z,84.9
2022-10-14T02:42:12.236Z,84.9
2022-10-14T02:43:12.241Z,84.8
2022-10-14T02:44:12.270Z,84.7
2022-10-14T02:45:12.278Z,84.8
2022-10-14T02:46:12.292Z,84.8
2022-10-14T02:47:12.307Z,84.8
2022-10-14T02:48:12.313Z,84.7
2022-10-14T02:49:12.321Z,84.8
2022-10-14T02:50:12.380Z,84.8
2022-10-14T02:51:12.367Z,84.8
2022-10-14T02:52:12.371Z,84.8
2022-10-14T02:53:12.375Z,84.7
2022-10-14T02:54:12.384Z,84.7
2022-10-14T02:55:12.396Z,84.7
2022-10-14T02:56:12.404Z,84.8
2022-10-14T02:57:12.410Z,84.7
2022-10-14T02:58:12.406Z,84.7
2022-10-14T02:59:12.429Z,84.8
2022-10-14T03:00:12.422Z,84.8
2022-10-14T03:01:12.451Z,84.8
2022-10-14T03:02:12.609Z,84.8
2022-10-14T03:03:12.446Z,84.8
2022-10-14T03:04:12.485Z,84.8
2022-10-14T03:05:12.499Z,84.8
2022-10-14T03:06:12.504Z,85.0
2022-10-14T03:07:12.511Z,84.9
2022-10-14T03:08:12.566Z,84.9
2022-10-14T03:09:12.564Z,84.8
2022-10-14T03:10:12.561Z,84.9
2022-10-14T03:11:12.570Z,84.9
2022-10-14T03:12:12.587Z,84.9
2022-10-14T03:13:12.603Z,85.0
2022-10-14T03:14:12.611Z,84.9
2022-10-14T03:15:12.654Z,85.0
2022-10-14T03:16:12.683Z,85.0
2022-10-14T03:17:12.669Z,85.0
2022-10-14T03:18:12.697Z,85.0
2022-10-14T03:19:12.702Z,84.9
2022-10-14T03:20:12.833Z,84.9
2022-10-14T03:21:12.716Z,84.9
2022-10-14T03:22:12.710Z,85.0
2022-10-14T03:23:12.713Z,84.9
2022-10-14T03:24:12.774Z,84.9
2022-10-14T03:25:12.899Z,84.9
2022-10-14T03:26:14.404Z,84.9
2022-10-14T03:27:12.768Z,84.9
2022-10-14T03:28:12.791Z,84.8
2022-10-14T03:29:12.791Z,84.9
2022-10-14T03:30:12.818Z,84.9
2022-10-14T03:31:12.810Z,84.9
2022-10-14T03:32:12.810Z,84.8
2022-10-14T03:33:20.471Z,84.8
2022-10-14T03:34:12.826Z,84.9
2022-10-14T03:35:12.860Z,84.9
2022-10-14T03:36:12.861Z,84.9
2022-10-14T03:37:12.870Z,84.9
2022-10-14T03:38:12.873Z,84.9
2022-10-14T03:39:12.886Z,84.9
2022-10-14T03:40:12.904Z,84.9
2022-10-14T03:41:12.922Z,84.9
2022-10-14T03:42:23.773Z,84.9
2022-10-14T03:43:12.936Z,84.8
2022-10-14T03:44:12.941Z,84.9
2022-10-14T03:45:12.955Z,85.0
2022-10-14T03:46:12.961Z,84.9
2022-10-14T03:47:12.976Z,84.9
2022-10-14T03:48:12.989Z,84.8
2022-10-14T03:49:12.993Z,84.9
2022-10-14T03:50:13.009Z,84.8
2022-10-14T03:51:13.020Z,84.9
2022-10-14T03:52:13.032Z,84.8
2022-10-14T03:53:13.058Z,84.9
2022-10-14T03:54:13.052Z,84.9
2022-10-14T03:55:13.060Z,85.0
2022-10-14T03:56:13.068Z,84.9
2022-10-14T03:57:13.095Z,85.0
2022-10-14T03:58:13.127Z,85.0
2022-10-14T03:59:13.111Z,84.9
2022-10-14T04:00:13.140Z,85.0
2022-10-14T04:01:13.140Z,85.0
2022-10-14T04:02:13.362Z,85.0
2022-10-14T04:03:13.166Z,84.9
2022-10-14T04:04:13.177Z,84.9
2022-10-14T04:05:13.191Z,84.9
2022-10-14T04:06:13.203Z,84.9
2022-10-14T04:07:13.221Z,84.9
2022-10-14T04:08:13.241Z,84.9
2022-10-14T04:09:13.254Z,84.9
2022-10-14T04:10:13.262Z,84.9
2022-10-14T04:11:13.274Z,85.0
2022-10-14T04:12:13.290Z,85.1
2022-10-14T04:13:13.303Z,85.1
2022-10-14T04:14:13.323Z,85.0
2022-10-14T04:15:13.362Z,85.0
2022-10-14T04:16:13.344Z,85.1
2022-10-14T04:17:13.343Z,85.1
2022-10-14T04:18:13.359Z,85.2
2022-10-14T04:19:13.377Z,85.1
2022-10-14T04:20:13.388Z,85.2
2022-10-14T04:21:13.392Z,85.1
2022-10-14T04:22:13.415Z,85.2
2022-10-14T04:23:13.427Z,85.2
2022-10-14T04:24:13.440Z,85.1
2022-10-14T04:25:13.466Z,85.1
2022-10-14T04:26:13.464Z,85.1
2022-10-14T04:27:13.475Z,85.1
2022-10-14T04:28:13.498Z,85.1
2022-10-14T04:29:13.495Z,85.2
2022-10-14T04:30:13.504Z,85.2
2022-10-14T04:31:13.507Z,85.1
2022-10-14T04:32:13.535Z,85.1
2022-10-14T04:33:13.543Z,85.2
2022-10-14T04:34:13.550Z,85.2
2022-10-14T04:35:13.587Z,85.3
2022-10-14T04:36:13.584Z,85.3
2022-10-14T04:37:13.593Z,85.3
2022-10-14T04:38:13.612Z,85.3
2022-10-14T04:39:13.617Z,85.5
2022-10-14T04:40:13.648Z,85.5
2022-10-14T04:41:13.649Z,85.5
2022-10-14T04:42:13.666Z,85.4
2022-10-14T04:43:13.687Z,85.6
2022-10-14T04:44:13.695Z,85.5
2022-10-14T04:45:13.715Z,85.5
2022-10-14T04:46:13.732Z,85.5
2022-10-14T04:47:13.744Z,85.5
2022-10-14T04:48:13.761Z,85.4
2022-10-14T04:49:13.777Z,85.4
2022-10-14T04:50:13.791Z,85.5
2022-10-14T04:51:13.796Z,85.4
2022-10-14T04:52:13.821Z,85.4
2022-10-14T04:53:22.388Z,85.4
2022-10-14T04:54:13.839Z,85.4
2022-10-14T04:55:13.859Z,85.4
2022-10-14T04:56:13.860Z,85.3
2022-10-14T04:57:13.880Z,85.3
2022-10-14T04:58:13.917Z,85.3
2022-10-14T04:59:13.909Z,85.3
2022-10-14T05:00:13.923Z,85.3
2022-10-14T05:01:13.944Z,85.3
2022-10-14T05:02:14.126Z,85.3
2022-10-14T05:03:13.970Z,85.2
2022-10-14T05:04:13.990Z,85.2
2022-10-14T05:05:13.989Z,85.2
2022-10-14T05:06:14.000Z,85.2
2022-10-14T05:07:14.011Z,85.2
2022-10-14T05:08:14.003Z,85.2
2022-10-14T05:09:14.018Z,85.2
2022-10-14T05:10:14.033Z,85.1
2022-10-14T05:11:14.035Z,85.1
2022-10-14T05:12:14.063Z,85.2
2022-10-14T05:13:14.079Z,85.2
2022-10-14T05:14:14.097Z,85.2
2022-10-14T05:15:14.119Z,85.2
2022-10-14T05:16:14.144Z,85.1
2022-10-14T05:17:14.150Z,85.1
2022-10-14T05:18:14.150Z,85.1
2022-10-14T05:19:14.154Z,85.1
2022-10-14T05:20:14.175Z,85.1
2022-10-14T05:21:14.183Z,85.1
2022-10-14T05:22:14.200Z,85.1
2022-10-14T05:23:14.222Z,85.2
2022-10-14T05:24:14.219Z,85.2
2022-10-14T05:25:14.388Z,85.1
2022-10-14T05:26:14.244Z,85.1
2022-10-14T05:27:14.243Z,85.1
2022-10-14T05:28:14.393Z,85.1
2022-10-14T05:29:14.280Z,85.1
2022-10-14T05:30:14.305Z,85.1
2022-10-14T05:31:14.317Z,85.1
2022-10-14T05:32:14.324Z,85.1
2022-10-14T05:33:14.356Z,85.1
2022-10-14T05:34:14.370Z,85.0
2022-10-14T05:35:14.374Z,85.1
2022-10-14T05:36:14.384Z,85.1
2022-10-14T05:37:14.394Z,85.1
2022-10-14T05:38:14.429Z,85.1
2022-10-14T05:39:14.415Z,85.1
2022-10-14T05:40:14.435Z,85.1
2022-10-14T05:41:14.448Z,85.1
2022-10-14T05:42:14.470Z,85.1
2022-10-14T05:43:14.470Z,85.0
2022-10-14T05:44:14.495Z,85.0
2022-10-14T05:45:14.505Z,85.1
2022-10-14T05:46:14.509Z,85.1
2022-10-14T05:47:14.530Z,85.1
2022-10-14T05:48:14.522Z,85.0
2022-10-14T05:49:14.532Z,85.1
2022-10-14T05:50:14.557Z,85.1
2022-10-14T05:51:14.560Z,85.1
2022-10-14T05:52:14.583Z,85.1
2022-10-14T05:53:14.601Z,85.1
2022-10-14T05:54:14.616Z,85.1
2022-10-14T05:55:14.626Z,85.1
2022-10-14T05:56:14.656Z,85.2
2022-10-14T05:57:14.651Z,85.2
2022-10-14T05:58:14.658Z,85.2
2022-10-14T05:59:14.669Z,85.2
2022-10-14T06:00:14.680Z,85.2
2022-10-14T06:01:14.679Z,85.3
2022-10-14T06:02:14.694Z,85.3
2022-10-14T06:03:14.958Z,85.2
2022-10-14T06:04:14.725Z,85.2
2022-10-14T06:05:14.755Z,85.2
2022-10-14T06:06:14.739Z,85.2
2022-10-14T06:07:14.737Z,85.3
2022-10-14T06:08:14.750Z,85.2
2022-10-14T06:09:14.770Z,85.2
2022-10-14T06:10:14.809Z,85.2
2022-10-14T06:11:14.782Z,85.1
2022-10-14T06:12:14.791Z,85.1
2022-10-14T06:13:14.801Z,85.1
2022-10-14T06:14:14.793Z,85.1
2022-10-14T06:15:14.811Z,85.0
2022-10-14T06:16:14.817Z,85.0
2022-10-14T06:17:17.805Z,85.0
2022-10-14T06:18:14.831Z,85.0
2022-10-14T06:19:14.834Z,85.0
2022-10-14T06:20:14.849Z,85.0
2022-10-14T06:21:14.842Z,84.9
2022-10-14T06:22:14.843Z,85.0
2022-10-14T06:23:14.852Z,85.0
2022-10-14T06:24:14.866Z,85.0
2022-10-14T06:25:14.862Z,85.0
2022-10-14T06:26:14.878Z,85.1
2022-10-14T06:27:14.878Z,85.1
2022-10-14T06:28:15.050Z,85.1
2022-10-14T06:29:14.892Z,85.1
2022-10-14T06:30:14.893Z,85.1
2022-10-14T06:31:14.911Z,85.1
2022-10-14T06:32:14.912Z,85.1
2022-10-14T06:33:14.914Z,85.1
2022-10-14T06:34:14.919Z,85.0
2022-10-14T06:35:14.930Z,85.0
2022-10-14T06:36:14.938Z,85.1
2022-10-14T06:37:14.950Z,85.1
2022-10-14T06:38:14.978Z,85.0
2022-10-14T06:39:14.965Z,85.1
2022-10-14T06:40:14.982Z,85.1
2022-10-14T06:41:15.000Z,85.1
2022-10-14T06:42:15.004Z,85.2
2022-10-14T06:43:14.994Z,85.1
2022-10-14T06:44:15.029Z,85.1
2022-10-14T06:45:15.010Z,85.2
2022-10-14T06:46:15.028Z,85.1
2022-10-14T06:47:15.028Z,85.1
2022-10-14T06:48:15.044Z,85.1
2022-10-14T06:49:15.046Z,85.1
2022-10-14T06:50:15.056Z,85.2
2022-10-14T06:51:15.054Z,85.1
2022-10-14T06:52:15.060Z,85.1
2022-10-14T06:53:15.070Z,85.0
2022-10-14T06:54:15.079Z,85.0
2022-10-14T06:55:15.075Z,85.0
2022-10-14T06:56:15.094Z,84.9
2022-10-14T06:57:15.081Z,84.9
2022-10-14T06:58:15.096Z,84.9
2022-10-14T06:59:15.097Z,84.8
2022-10-14T07:00:15.118Z,84.8
2022-10-14T07:01:15.269Z,84.7
2022-10-14T07:02:15.119Z,84.7
2022-10-14T07:03:15.121Z,84.6
2022-10-14T07:04:15.128Z,84.6
2022-10-14T07:05:15.138Z,84.6
2022-10-14T07:06:15.143Z,84.6
2022-10-14T07:07:15.148Z,84.6
2022-10-14T07:08:16.033Z,84.5
2022-10-14T07:09:15.160Z,84.4
2022-10-14T07:10:15.168Z,84.4
2022-10-14T07:11:15.185Z,84.3
2022-10-14T07:12:15.185Z,84.3
2022-10-14T07:13:15.331Z,84.3
2022-10-14T07:14:15.375Z,84.2
2022-10-14T07:15:15.203Z,84.2
2022-10-14T07:16:15.207Z,84.0
2022-10-14T07:17:15.213Z,83.8
2022-10-14T07:18:15.219Z,83.8
2022-10-14T07:19:15.224Z,83.8
2022-10-14T07:20:15.250Z,83.7
2022-10-14T07:21:15.240Z,83.7
2022-10-14T07:22:15.251Z,83.7
2022-10-14T07:23:15.256Z,83.6
2022-10-14T07:24:15.257Z,83.6
2022-10-14T07:25:15.263Z,83.5
2022-10-14T07:26:15.272Z,83.5
2022-10-14T07:27:15.280Z,83.5
2022-10-14T07:28:15.485Z,83.4
2022-10-14T07:29:15.306Z,83.3
2022-10-14T07:30:17.825Z,83.2
2022-10-14T07:31:15.303Z,83.2
2022-10-14T07:32:15.582Z,83.1
2022-10-14T07:33:15.310Z,83.1
2022-10-14T07:34:15.331Z,83.0
2022-10-14T07:35:15.319Z,82.9
2022-10-14T07:36:22.952Z,82.9
2022-10-14T07:37:15.340Z,82.7
2022-10-14T07:38:15.343Z,82.7
2022-10-14T07:39:15.347Z,82.7
2022-10-14T07:40:15.356Z,82.6
2022-10-14T07:41:15.361Z,82.5
2022-10-14T07:42:15.713Z,82.5
2022-10-14T07:43:15.378Z,82.4
2022-10-14T07:44:15.380Z,82.4
2022-10-14T07:45:15.379Z,82.3
2022-10-14T07:46:15.388Z,82.1
2022-10-14T07:47:15.488Z,82.1
2022-10-14T07:48:45.204Z,81.9
2022-10-14T07:49:15.414Z,81.8
2022-10-14T07:50:15.411Z,81.8
2022-10-14T07:51:15.413Z,81.7
2022-10-14T07:52:15.461Z,81.6
2022-10-14T07:53:15.432Z,81.4
2022-10-14T07:54:15.443Z,81.4
2022-10-14T07:55:15.451Z,81.2
2022-10-14T07:56:15.481Z,81.2
2022-10-14T07:57:15.455Z,81.2
2022-10-14T07:58:15.466Z,81.1
2022-10-14T07:59:15.479Z,81.1
2022-10-14T08:00:15.491Z,81.0
2022-10-14T08:01:15.991Z,81.0
2022-10-14T08:02:15.621Z,81.0
2022-10-14T08:03:15.498Z,80.9
2022-10-14T08:04:15.504Z,80.8
2022-10-14T08:05:39.058Z,80.8
2022-10-14T08:06:15.596Z,80.7
2022-10-14T08:07:15.518Z,80.7
2022-10-14T08:08:15.533Z,80.5
2022-10-14T08:09:15.670Z,80.5
2022-10-14T08:10:15.543Z,80.6
2022-10-14T08:11:15.558Z,80.6
2022-10-14T08:12:15.599Z,80.6
2022-10-14T08:13:15.569Z,80.7
2022-10-14T08:14:15.573Z,80.7
2022-10-14T08:15:15.586Z,80.7
2022-10-14T08:16:15.592Z,80.8
2022-10-14T08:17:15.595Z,80.8
2022-10-14T08:18:15.606Z,80.8
2022-10-14T08:19:15.619Z,80.8
2022-10-14T08:20:15.803Z,80.8
2022-10-14T08:21:15.623Z,80.8
2022-10-14T08:22:15.627Z,80.8
2022-10-14T08:23:20.208Z,80.8
2022-10-14T08:24:15.642Z,80.8
2022-10-14T08:25:15.654Z,80.9
2022-10-14T08:26:15.660Z,80.9
2022-10-14T08:27:15.661Z,80.6
2022-10-14T08:28:15.865Z,80.7
2022-10-14T08:29:15.674Z,80.6
2022-10-14T08:30:15.680Z,80.4
2022-10-14T08:31:15.690Z,80.2
2022-10-14T08:32:15.700Z,80.3
2022-10-14T08:33:15.699Z,79.9
2022-10-14T08:34:15.726Z,80.0
2022-10-14T08:35:15.731Z,80.0
2022-10-14T08:36:15.739Z,79.7
2022-10-14T08:37:15.740Z,79.7
2022-10-14T08:38:15.743Z,79.5
2022-10-14T08:39:15.837Z,79.2
2022-10-14T08:40:15.871Z,79.0
2022-10-14T08:41:15.768Z,79.0
2022-10-14T08:42:15.794Z,78.9
2022-10-14T08:43:15.785Z,78.6
2022-10-14T08:44:15.790Z,78.3
2022-10-14T08:45:15.793Z,77.9
2022-10-14T08:46:15.802Z,77.8
2022-10-14T08:47:15.836Z,77.3
2022-10-14T08:48:15.825Z,77.3
2022-10-14T08:49:15.825Z,76.8
2022-10-14T08:50:15.835Z,76.9
2022-10-14T08:51:15.847Z,76.8
2022-10-14T08:52:16.082Z,76.0
2022-10-14T08:53:15.855Z,75.9
2022-10-14T08:54:15.868Z,75.6
2022-10-14T08:55:15.880Z,74.9
2022-10-14T08:56:15.888Z,74.9
2022-10-14T08:57:15.900Z,74.6
2022-10-14T08:58:16.387Z,74.0
2022-10-14T08:59:15.907Z,73.8
2022-10-14T09:00:15.924Z,73.6
2022-10-14T09:01:15.929Z,73.6
2022-10-14T09:02:15.937Z,73.8
2022-10-14T09:03:16.098Z,73.7
2022-10-14T09:04:16.207Z,73.4
2022-10-14T09:05:15.960Z,73.2
2022-10-14T09:06:15.964Z,73.1
2022-10-14T09:07:15.972Z,72.9
2022-10-14T09:08:15.989Z,72.2
2022-10-14T09:09:15.992Z,72.0
2022-10-14T09:10:16.005Z,71.8
2022-10-14T09:11:16.003Z,71.6
2022-10-14T09:12:16.018Z,70.5
2022-10-14T09:13:16.024Z,70.9
2022-10-14T09:14:16.031Z,70.7
2022-10-14T09:15:16.043Z,70.8
2022-10-14T09:16:16.043Z,70.6
2022-10-14T09:17:16.051Z,69.7
2022-10-14T09:18:16.059Z,69.7
2022-10-14T09:19:16.075Z,69.3
2022-10-14T09:20:16.091Z,68.7
2022-10-14T09:22:16.074Z,66.3
2022-10-14T09:23:16.083Z,67.1
2022-10-14T09:24:16.094Z,66.5
2022-10-14T09:25:16.101Z,66.5
2022-10-14T09:26:16.109Z,66.6
2022-10-14T09:27:16.107Z,66.6
2022-10-14T09:28:16.253Z,67.1
2022-10-14T09:29:16.120Z,67.0
2022-10-14T09:30:16.131Z,67.0
2022-10-14T09:31:16.147Z,66.8
2022-10-14T09:32:16.142Z,67.1
2022-10-14T09:33:16.147Z,67.3
2022-10-14T09:34:20.524Z,67.6
2022-10-14T09:35:16.167Z,67.9
2022-10-14T09:36:16.166Z,68.1
2022-10-14T09:37:16.170Z,68.3
2022-10-14T09:38:16.178Z,68.2
2022-10-14T09:39:16.186Z,68.4
2022-10-14T09:40:16.213Z,68.7
2022-10-14T09:41:16.192Z,68.7
2022-10-14T09:42:16.207Z,68.5
2022-10-14T09:43:16.225Z,68.7
2022-10-14T09:44:16.225Z,68.8
2022-10-14T09:45:16.226Z,68.7
2022-10-14T09:46:16.228Z,69.1
2022-10-14T09:47:16.238Z,68.8
2022-10-14T09:48:16.231Z,69.1
2022-10-14T09:49:16.247Z,69.4
2022-10-14T09:50:16.251Z,69.2
2022-10-14T09:51:16.258Z,69.3
2022-10-14T09:52:16.258Z,69.2
2022-10-14T09:53:16.286Z,69.2
2022-10-14T09:54:16.286Z,69.3
2022-10-14T09:55:16.291Z,69.2
2022-10-14T09:56:21.019Z,68.6
2022-10-14T09:57:16.288Z,68.2
2022-10-14T09:58:16.295Z,67.3
2022-10-14T09:59:16.299Z,67.5
2022-10-14T10:00:16.307Z,67.2
2022-10-14T10:01:16.319Z,66.5
2022-10-14T10:02:16.326Z,66.6
2022-10-14T10:03:17.399Z,66.1
2022-10-14T10:04:16.340Z,65.7
2022-10-14T10:05:16.349Z,66.0
2022-10-14T10:06:16.358Z,66.2
2022-10-14T10:07:16.368Z,66.1
2022-10-14T10:08:16.376Z,65.8
2022-10-14T10:09:16.374Z,66.1
2022-10-14T10:10:16.384Z,66.3
2022-10-14T10:11:16.393Z,66.4
2022-10-14T10:12:16.399Z,66.2
2022-10-14T10:14:16.419Z,66.6
2022-10-14T10:15:16.434Z,66.8
2022-10-14T10:16:16.440Z,66.9
2022-10-14T10:17:16.444Z,67.0
2022-10-14T10:18:16.471Z,66.6
2022-10-14T10:19:16.458Z,66.6
2022-10-14T10:20:16.531Z,66.9
2022-10-14T10:21:16.475Z,66.6
2022-10-14T10:22:16.809Z,66.8
2022-10-14T10:23:16.483Z,67.3
2022-10-14T10:24:16.504Z,66.4
2022-10-14T10:25:16.490Z,64.8
2022-10-14T10:26:16.511Z,65.5
2022-10-14T10:27:16.504Z,65.5
2022-10-14T10:28:16.823Z,65.7
2022-10-14T10:29:16.518Z,65.8
2022-10-14T10:30:16.804Z,66.2
2022-10-14T10:31:17.027Z,66.2
2022-10-14T10:32:16.538Z,65.7
2022-10-14T10:33:16.546Z,65.4
2022-10-14T10:34:16.556Z,65.7
2022-10-14T10:35:16.568Z,65.8
2022-10-14T10:36:16.818Z,65.0
2022-10-14T10:37:16.587Z,64.4
2022-10-14T10:38:16.580Z,64.3
2022-10-14T10:39:16.594Z,63.4
2022-10-14T10:40:16.917Z,62.7
2022-10-14T10:41:16.600Z,62.4
2022-10-14T10:42:16.611Z,62.3
2022-10-14T10:43:16.622Z,62.2
2022-10-14T10:44:16.623Z,61.9
2022-10-14T10:45:16.648Z,61.8
2022-10-14T10:46:16.632Z,61.9
2022-10-14T10:47:16.636Z,62.1
2022-10-14T10:48:16.648Z,61.7
2022-10-14T10:49:16.647Z,61.7
2022-10-14T10:50:16.940Z,61.8
2022-10-14T10:51:16.667Z,61.4
2022-10-14T10:52:21.982Z,61.5
2022-10-14T10:53:16.680Z,61.6
2022-10-14T10:54:16.693Z,61.7
2022-10-14T10:55:16.693Z,61.8
2022-10-14T10:56:16.707Z,61.7
2022-10-14T10:57:16.711Z,61.7
2022-10-14T10:58:16.717Z,61.2
2022-10-14T10:59:16.974Z,61.2
2022-10-14T11:00:17.113Z,61.1
2022-10-14T11:01:17.041Z,61.4
2022-10-14T11:02:16.745Z,61.3
2022-10-14T11:03:16.747Z,61.7
2022-10-14T11:04:16.755Z,61.5
2022-10-14T11:05:16.765Z,61.5
2022-10-14T11:06:16.783Z,61.1
2022-10-14T11:07:16.823Z,61.1
2022-10-14T11:08:16.841Z,61.4
2022-10-14T11:09:16.842Z,61.2
2022-10-14T11:10:16.998Z,61.5
2022-10-14T11:11:16.854Z,61.6
2022-10-14T11:12:16.808Z,61.6
2022-10-14T11:13:16.822Z,61.6
2022-10-14T11:14:16.880Z,61.2
2022-10-14T11:16:16.856Z,60.3
2022-10-14T11:17:17.064Z,59.5
2022-10-14T11:18:16.908Z,58.6
2022-10-14T11:19:16.920Z,59.2
2022-10-14T11:20:16.924Z,60.0
2022-10-14T11:21:16.932Z,59.5
2022-10-14T11:22:16.880Z,59.5
2022-10-14T11:23:16.888Z,59.6
2022-10-14T11:25:16.907Z,59.4
2022-10-14T11:26:16.916Z,59.1
2022-10-14T11:27:25.081Z,59.0
2022-10-14T11:28:17.165Z,57.9
2022-10-14T11:29:16.939Z,58.5
2022-10-14T11:30:16.952Z,58.3
2022-10-14T11:31:16.973Z,57.8
2022-10-14T11:32:16.961Z,57.8
2022-10-14T11:33:16.967Z,57.4
2022-10-14T11:34:17.080Z,57.2
2022-10-14T11:35:16.998Z,57.0
2022-10-14T11:36:17.026Z,57.3
2022-10-14T11:37:17.008Z,56.9
2022-10-14T11:38:17.008Z,57.3
2022-10-14T11:39:17.048Z,57.8
2022-10-14T11:40:17.037Z,58.1
2022-10-14T11:41:17.042Z,58.3
2022-10-14T11:42:17.036Z,58.7
2022-10-14T11:43:17.049Z,58.8
2022-10-14T11:44:17.073Z,59.0
2022-10-14T11:45:21.709Z,59.4
2022-10-14T11:46:17.061Z,60.1
2022-10-14T11:47:17.071Z,60.1
2022-10-14T11:48:17.075Z,60.3
2022-10-14T11:49:17.073Z,60.8
2022-10-14T11:50:17.095Z,61.0
2022-10-14T11:51:17.097Z,60.8
2022-10-14T11:52:17.125Z,60.9
2022-10-14T11:53:17.114Z,61.8
2022-10-14T11:54:17.127Z,61.6
2022-10-14T11:55:17.129Z,61.4
2022-10-14T11:56:17.126Z,61.4
2022-10-14T11:57:17.132Z,61.8
2022-10-14T11:58:17.139Z,61.9
2022-10-14T11:59:17.140Z,61.8
2022-10-14T12:00:17.381Z,62.2
2022-10-14T12:01:17.154Z,62.3
2022-10-14T12:02:17.350Z,62.2
2022-10-14T12:03:17.164Z,61.3
2022-10-14T12:04:17.174Z,62.1
2022-10-14T12:05:17.173Z,62.5
2022-10-14T12:06:17.183Z,62.5
2022-10-14T12:07:17.186Z,61.9
2022-10-14T12:08:17.220Z,62.0
2022-10-14T12:09:17.212Z,61.9
2022-10-14T12:10:17.211Z,61.5
2022-10-14T12:11:17.219Z,61.2
2022-10-14T12:12:17.219Z,61.4
2022-10-14T12:13:17.228Z,61.3
2022-10-14T12:14:17.230Z,60.7
2022-10-14T12:15:17.511Z,61.2
2022-10-14T12:16:17.255Z,60.3
2022-10-14T12:17:19.239Z,60.1
2022-10-14T12:18:17.266Z,60.7
2022-10-14T12:19:17.288Z,61.0
2022-10-14T12:20:17.308Z,61.2
2022-10-14T12:21:17.287Z,61.2
2022-10-14T12:22:17.539Z,59.9
2022-10-14T12:23:17.296Z,60.3
2022-10-14T12:24:17.318Z,60.2
2022-10-14T12:25:17.317Z,60.2
2022-10-14T12:26:17.327Z,59.7
2022-10-14T12:27:17.347Z,59.7
2022-10-14T12:28:17.514Z,59.8
2022-10-14T12:29:17.349Z,60.0
2022-10-14T12:30:17.371Z,60.3
2022-10-14T12:31:17.355Z,60.8
2022-10-14T12:32:17.386Z,60.1
2022-10-14T12:33:23.330Z,60.2
2022-10-14T12:34:17.414Z,60.4
2022-10-14T12:35:17.394Z,60.9
2022-10-14T12:36:17.401Z,61.2
2022-10-14T12:37:17.417Z,61.0
2022-10-14T12:38:17.411Z,61.5
2022-10-14T12:39:17.626Z,61.8
2022-10-14T12:40:17.432Z,61.6
2022-10-14T12:41:17.451Z,61.8
2022-10-14T12:42:17.444Z,61.9
2022-10-14T12:43:17.446Z,61.9
2022-10-14T12:44:17.448Z,61.9
2022-10-14T12:45:17.466Z,61.9
2022-10-14T12:46:17.470Z,62.0
2022-10-14T12:47:17.481Z,62.1
2022-10-14T12:48:17.507Z,62.2
2022-10-14T12:49:17.488Z,62.3
2022-10-14T12:50:17.500Z,62.2
2022-10-14T12:51:17.510Z,62.5
2022-10-14T12:52:17.520Z,63.0
2022-10-14T12:53:17.522Z,62.9
2022-10-14T12:54:17.526Z,63.3
2022-10-14T12:55:17.541Z,63.6
2022-10-14T12:56:17.543Z,64.3
2022-10-14T12:57:17.565Z,64.5
2022-10-14T12:58:17.562Z,64.5
2022-10-14T12:59:17.612Z,64.6
2022-10-14T13:00:17.586Z,64.8
2022-10-14T13:01:17.932Z,65.1
2022-10-14T13:02:17.598Z,65.2
2022-10-14T13:03:17.603Z,65.1
2022-10-14T13:04:20.709Z,65.1
2022-10-14T13:05:17.625Z,65.0
2022-10-14T13:06:17.661Z,64.9
2022-10-14T13:07:41.677Z,64.8
2022-10-14T13:08:17.643Z,64.4
2022-10-14T13:09:17.660Z,63.5
2022-10-14T13:10:17.663Z,63.6
2022-10-14T13:11:17.674Z,63.5
2022-10-14T13:12:17.681Z,63.3
2022-10-14T13:13:17.682Z,63.0
2022-10-14T13:14:17.685Z,63.0
2022-10-14T13:15:17.693Z,63.0
2022-10-14T13:16:17.707Z,62.7
2022-10-14T13:17:17.718Z,62.5
2022-10-14T13:18:17.717Z,62.3
2022-10-14T13:19:17.723Z,61.7
2022-10-14T13:20:17.736Z,61.7
2022-10-14T13:21:17.732Z,60.4
2022-10-14T13:22:17.758Z,60.2
2022-10-14T13:23:17.760Z,59.7
2022-10-14T13:24:17.772Z,59.5
2022-10-14T13:25:17.793Z,59.5
2022-10-14T13:26:17.945Z,59.5
2022-10-14T13:27:17.782Z,59.7
2022-10-14T13:28:18.137Z,59.8
2022-10-14T13:29:17.801Z,60.2
2022-10-14T13:30:17.827Z,59.5
2022-10-14T13:31:17.831Z,58.8
2022-10-14T13:32:28.639Z,59.2
2022-10-14T13:33:17.835Z,59.0
2022-10-14T13:34:17.836Z,58.5
2022-10-14T13:35:17.837Z,58.9
2022-10-14T13:36:17.845Z,58.8
2022-10-14T13:37:17.865Z,59.1
2022-10-14T13:38:17.868Z,59.1
2022-10-14T13:39:17.869Z,59.2